createdAt,value
2023-04-05T00:02:18.857Z,-1.00
2023-04-05T00:04:52.569Z,-0.80
2023-04-05T00:07:21.437Z,-1.10
2023-04-05T00:09:49.152Z,-1.10
2023-04-05T00:12:16.491Z,-1.20
2023-04-05T00:14:43.353Z,-1.20
2023-04-05T00:17:11.968Z,-1.10
2023-04-05T00:19:39.657Z,-1.20
2023-04-05T00:22:06.421Z,-1.20
2023-04-05T00:24:33.962Z,-1.20
2023-04-05T00:27:01.363Z,-1.20
2023-04-05T00:29:28.521Z,-1.20
2023-04-05T00:31:56.261Z,-1.20
2023-04-05T00:34:23.274Z,-1.20
2023-04-05T00:36:50.132Z,-1.20
2023-04-05T00:39:18.298Z,-1.20
2023-04-05T00:41:46.945Z,-1.20
2023-04-05T00:44:15.703Z,-1.20
2023-04-05T00:46:42.722Z,-1.20
2023-04-05T00:49:09.589Z,-1.20
2023-04-05T00:51:38.348Z,-1.20
2023-04-05T00:54:06.291Z,-1.20
2023-04-05T00:56:33.330Z,-1.20
2023-04-05T00:59:00.229Z,-1.30
2023-04-05T01:01:28.208Z,-1.40
2023-04-05T01:04:08.862Z,-1.40
2023-04-05T01:07:12.946Z,-1.50
2023-04-05T01:09:56.690Z,-1.50
2023-04-05T01:12:27.511Z,-1.50
2023-04-05T01:14:55.584Z,-1.50
2023-04-05T01:17:24.603Z,-1.50
2023-04-05T01:19:54.583Z,-1.50
2023-04-05T01:22:38.282Z,-1.60
2023-04-05T01:25:23.705Z,-1.50
2023-04-05T01:27:59.560Z,-1.60
2023-04-05T01:30:42.754Z,-1.60
2023-04-05T01:33:28.474Z,-1.60
2023-04-05T01:36:01.788Z,-1.60
2023-04-05T01:38:30.310Z,-1.60
2023-04-05T01:40:57.160Z,-1.60
2023-04-05T01:43:24.046Z,-1.70
2023-04-05T01:45:50.832Z,-1.70
2023-04-05T01:48:17.610Z,-1.80
2023-04-05T01:50:44.516Z,-1.80
2023-04-05T01:53:11.234Z,-1.90
2023-04-05T01:55:38.356Z,-1.90
2023-04-05T01:58:05.457Z,-1.90
2023-04-05T02:00:32.588Z,-2.00
2023-04-05T02:02:59.492Z,-2.00
2023-04-05T02:05:26.344Z,-2.00
2023-04-05T02:07:53.059Z,-2.00
2023-04-05T02:10:20.549Z,-2.00
2023-04-05T02:12:47.434Z,-2.00
2023-04-05T02:15:14.388Z,-2.10
2023-04-05T02:17:45.857Z,-2.10
2023-04-05T02:20:14.680Z,-2.10
2023-04-05T02:22:42.062Z,-2.10
2023-04-05T02:25:09.353Z,-2.10
2023-04-05T02:27:36.179Z,-2.10
2023-04-05T02:30:03.065Z,-2.10
2023-04-05T02:32:29.913Z,-2.10
2023-04-05T02:34:56.754Z,-2.10
2023-04-05T02:37:23.546Z,-2.10
2023-04-05T02:39:50.532Z,-2.10
2023-04-05T02:42:17.258Z,-2.10
2023-04-05T02:44:45.270Z,-2.10
2023-04-05T02:47:12.049Z,-2.00
2023-04-05T02:49:38.812Z,-1.90
2023-04-05T02:52:05.603Z,-1.90
2023-04-05T02:54:32.304Z,-1.80
2023-04-05T02:57:02.406Z,-1.90
2023-04-05T02:59:29.336Z,-1.90
2023-04-05T03:01:56.175Z,-1.90
2023-04-05T03:04:28.648Z,-1.90
2023-04-05T03:06:57.315Z,-1.90
2023-04-05T03:09:24.205Z,-1.90
2023-04-05T03:11:50.942Z,-1.80
2023-04-05T03:14:17.668Z,-1.80
2023-04-05T03:16:44.759Z,-1.90
2023-04-05T03:19:11.464Z,-1.90
2023-04-05T03:21:39.801Z,-1.90
2023-04-05T03:24:08.222Z,-2.00
2023-04-05T03:26:35.023Z,-2.00
2023-04-05T03:29:02.091Z,-2.00
2023-04-05T03:31:30.463Z,-2.00
2023-04-05T03:33:57.201Z,-2.00
2023-04-05T03:36:24.118Z,-2.00
2023-04-05T03:38:52.083Z,-2.00
2023-04-05T03:41:18.791Z,-2.00
2023-04-05T03:43:45.575Z,-2.00
2023-04-05T03:46:12.355Z,-1.90
2023-04-05T03:48:39.246Z,-1.90
2023-04-05T03:51:06.268Z,-2.00
2023-04-05T03:53:33.398Z,-2.10
2023-04-05T03:56:00.290Z,-2.10
2023-04-05T03:58:27.274Z,-2.10
2023-04-05T04:00:56.090Z,-2.20
2023-04-05T04:03:22.836Z,-2.20
2023-04-05T04:05:49.615Z,-2.20
2023-04-05T04:08:16.313Z,-2.10
2023-04-05T04:10:43.072Z,-2.10
2023-04-05T04:13:09.748Z,-2.20
2023-04-05T04:15:36.533Z,-2.20
2023-04-05T04:18:03.382Z,-2.20
2023-04-05T04:20:30.206Z,-2.20
2023-04-05T04:22:58.896Z,-2.20
2023-04-05T04:25:30.633Z,-2.20
2023-04-05T04:27:58.788Z,-2.20
2023-04-05T04:30:25.813Z,-2.20
2023-04-05T04:32:53.405Z,-2.10
2023-04-05T04:35:24.699Z,-2.10
2023-04-05T04:38:00.160Z,-2.00
2023-04-05T04:40:40.173Z,-2.00
2023-04-05T04:43:14.518Z,-1.90
2023-04-05T04:45:41.726Z,-1.80
2023-04-05T04:48:08.677Z,-1.80
2023-04-05T04:50:35.970Z,-1.70
2023-04-05T04:53:02.701Z,-1.60
2023-04-05T04:55:33.463Z,-1.50
2023-04-05T04:58:00.573Z,-1.40
2023-04-05T05:00:27.275Z,-1.40
2023-04-05T05:02:55.495Z,-1.30
2023-04-05T05:05:26.437Z,-1.30
2023-04-05T05:07:53.652Z,-1.20
2023-04-05T05:10:21.060Z,-1.20
2023-04-05T05:12:48.826Z,-1.20
2023-04-05T05:15:15.675Z,-1.20
2023-04-05T05:17:43.033Z,-1.20
2023-04-05T05:20:11.345Z,-1.20
2023-04-05T05:22:39.313Z,-1.10
2023-04-05T05:25:09.204Z,-1.10
2023-04-05T05:27:36.447Z,-1.00
2023-04-05T05:30:03.889Z,-1.00
2023-04-05T05:32:30.699Z,-1.00
2023-04-05T05:34:57.555Z,-1.00
2023-04-05T05:37:31.898Z,-0.90
2023-04-05T05:39:59.269Z,-0.90
2023-04-05T05:42:27.320Z,-0.90
2023-04-05T05:44:54.057Z,-0.80
2023-04-05T05:47:21.133Z,-0.70
2023-04-05T05:49:49.723Z,-0.70
2023-04-05T05:52:16.917Z,-1.00
2023-04-05T05:54:43.664Z,-0.70
2023-04-05T05:57:10.938Z,-0.70
2023-04-05T05:59:37.857Z,-0.60
2023-04-05T06:02:05.912Z,-0.60
2023-04-05T06:04:34.162Z,-0.50
2023-04-05T06:07:01.776Z,-0.40
2023-04-05T06:09:29.055Z,-0.40
2023-04-05T06:11:57.326Z,-0.30
2023-04-05T06:14:25.219Z,-0.20
2023-04-05T06:16:52.318Z,-0.30
2023-04-05T06:19:19.139Z,-0.20
2023-04-05T06:21:45.882Z,-0.20
2023-04-05T06:24:12.713Z,-0.20
2023-04-05T06:26:39.404Z,-0.10
2023-04-05T06:29:06.273Z,0.00
2023-04-05T06:31:34.840Z,0.10
2023-04-05T06:34:02.295Z,0.20
2023-04-05T06:36:33.933Z,0.20
2023-04-05T06:39:00.963Z,0.30
2023-04-05T06:41:27.907Z,0.30
2023-04-05T06:43:55.506Z,0.30
2023-04-05T06:46:22.845Z,0.40
2023-04-05T06:48:50.329Z,0.40
2023-04-05T06:51:18.727Z,0.40
2023-04-05T06:53:45.429Z,0.40
2023-04-05T06:56:12.444Z,0.40
2023-04-05T06:58:39.175Z,0.40
2023-04-05T07:01:06.595Z,0.50
2023-04-05T07:03:34.068Z,0.60
2023-04-05T07:06:01.243Z,0.70
2023-04-05T07:08:29.413Z,0.80
2023-04-05T07:10:56.458Z,1.00
2023-04-05T07:13:24.712Z,0.90
2023-04-05T07:15:52.255Z,1.00
2023-04-05T07:18:19.480Z,1.10
2023-04-05T07:20:49.205Z,1.10
2023-04-05T07:23:16.586Z,1.20
2023-04-05T07:25:43.972Z,1.20
2023-04-05T07:28:11.066Z,1.30
2023-04-05T07:30:37.976Z,1.50
2023-04-05T07:33:04.869Z,1.70
2023-04-05T07:35:31.720Z,1.80
2023-04-05T07:37:58.823Z,1.90
2023-04-05T07:40:25.815Z,1.80
2023-04-05T07:42:52.568Z,1.70
2023-04-05T07:45:19.331Z,1.70
2023-04-05T07:47:46.763Z,1.70
2023-04-05T07:50:17.235Z,1.70
2023-04-05T07:52:43.990Z,1.80
2023-04-05T07:55:10.936Z,1.80
2023-04-05T07:57:37.965Z,1.90
2023-04-05T08:00:10.854Z,2.00
2023-04-05T08:02:37.803Z,2.20
2023-04-05T08:05:05.465Z,2.20
2023-04-05T08:07:32.233Z,2.10
2023-04-05T08:09:59.920Z,2.10
2023-04-05T08:12:27.456Z,2.10
2023-04-05T08:14:54.285Z,2.20
2023-04-05T08:17:21.134Z,2.20
2023-04-05T08:19:49.486Z,2.20
2023-04-05T08:22:17.800Z,2.10
2023-04-05T08:24:45.076Z,2.20
2023-04-05T08:27:12.220Z,2.30
2023-04-05T08:29:38.988Z,2.40
2023-04-05T08:32:06.184Z,2.40
2023-04-05T08:34:33.032Z,2.60
2023-04-05T08:37:00.405Z,2.60
2023-04-05T08:39:27.381Z,2.80
2023-04-05T08:42:17.413Z,3.00
2023-04-05T08:44:46.322Z,3.10
2023-04-05T08:47:18.493Z,3.10
2023-04-05T08:49:46.189Z,3.00
2023-04-05T08:52:13.096Z,2.90
2023-04-05T08:54:40.086Z,2.90
2023-04-05T08:57:08.172Z,3.00
2023-04-05T08:59:38.386Z,2.90
2023-04-05T09:02:14.392Z,2.80
2023-04-05T09:04:44.936Z,2.80
2023-04-05T09:07:13.472Z,2.80
2023-04-05T09:09:44.264Z,2.80
2023-04-05T09:12:11.610Z,2.90
2023-04-05T09:14:39.850Z,2.90
2023-04-05T09:17:06.715Z,3.00
2023-04-05T09:19:33.588Z,3.10
2023-04-05T09:22:02.147Z,3.20
2023-04-05T09:24:33.134Z,3.20
2023-04-05T09:27:13.217Z,3.30
2023-04-05T09:29:41.884Z,3.50
2023-04-05T09:32:10.617Z,3.70
2023-04-05T09:34:38.529Z,3.70
2023-04-05T09:37:15.795Z,3.60
2023-04-05T09:39:43.588Z,3.40
2023-04-05T09:42:17.545Z,3.30
2023-04-05T09:45:04.871Z,3.30
2023-04-05T09:47:36.701Z,3.10
2023-04-05T09:50:23.812Z,3.20
2023-04-05T09:52:52.543Z,3.20
2023-04-05T09:55:29.088Z,3.30
2023-04-05T09:57:55.981Z,3.50
2023-04-05T10:00:23.176Z,3.60
2023-04-05T10:02:55.632Z,3.80
2023-04-05T10:05:27.935Z,4.10
2023-04-05T10:07:56.274Z,4.20
2023-04-05T10:10:24.167Z,5.30
2023-04-05T10:12:51.364Z,5.70
2023-04-05T10:15:19.123Z,5.90
2023-04-05T10:18:08.443Z,6.00
2023-04-05T10:20:41.137Z,5.80
2023-04-05T10:23:26.987Z,5.10
2023-04-05T10:25:54.008Z,4.40
2023-04-05T10:28:34.700Z,4.30
2023-04-05T10:31:13.292Z,4.20
2023-04-05T10:33:48.208Z,4.20
2023-04-05T10:36:37.942Z,4.60
2023-04-05T10:39:12.431Z,5.00
2023-04-05T10:41:52.810Z,5.00
2023-04-05T10:44:26.269Z,4.80
2023-04-05T10:46:54.898Z,4.60
2023-04-05T10:49:39.718Z,4.50
2023-04-05T10:52:07.091Z,4.20
2023-04-05T10:54:36.934Z,4.40
2023-04-05T10:57:09.509Z,4.70
2023-04-05T10:59:41.780Z,4.70
2023-04-05T11:02:09.780Z,5.00
2023-04-05T11:04:37.691Z,5.20
2023-04-05T11:07:19.649Z,5.60
2023-04-05T11:09:52.728Z,5.60
2023-04-05T11:12:19.678Z,5.30
2023-04-05T11:14:46.509Z,5.30
2023-04-05T11:17:28.035Z,5.00
2023-04-05T11:20:05.527Z,4.80
2023-04-05T11:22:32.371Z,4.60
2023-04-05T11:25:02.708Z,4.60
2023-04-05T11:27:34.578Z,4.80
2023-04-05T11:30:03.108Z,4.90
2023-04-05T11:32:43.828Z,5.00
2023-04-05T11:35:22.986Z,5.10
2023-04-05T11:38:02.100Z,5.20
2023-04-05T11:40:33.866Z,5.20
2023-04-05T11:43:08.691Z,4.80
2023-04-05T11:45:37.517Z,4.80
2023-04-05T11:48:11.945Z,4.70
2023-04-05T11:50:42.025Z,4.80
2023-04-05T11:53:14.214Z,4.70
2023-04-05T11:55:43.186Z,4.70
2023-04-05T11:58:24.157Z,4.90
2023-04-05T12:01:07.428Z,5.00
2023-04-05T12:03:35.587Z,5.30
2023-04-05T12:06:04.743Z,5.10
2023-04-05T12:08:43.022Z,5.00
2023-04-05T12:11:11.719Z,4.90
2023-04-05T12:13:39.185Z,4.90
2023-04-05T12:16:07.962Z,5.00
2023-04-05T12:18:37.097Z,4.90
2023-04-05T12:21:09.997Z,5.00
2023-04-05T12:23:38.162Z,5.00
2023-04-05T12:26:07.706Z,5.00
2023-04-05T12:28:50.515Z,5.00
2023-04-05T12:31:17.441Z,4.90
2023-04-05T12:33:44.393Z,4.90
2023-04-05T12:36:13.965Z,4.90
2023-04-05T12:38:40.879Z,4.80
2023-04-05T12:41:07.748Z,4.80
2023-04-05T12:43:41.992Z,4.80
2023-04-05T12:46:18.489Z,4.90
2023-04-05T12:48:51.705Z,4.90
2023-04-05T12:51:18.396Z,4.90
2023-04-05T12:53:50.774Z,4.80
2023-04-05T12:56:18.471Z,4.90
2023-04-05T12:58:52.495Z,5.20
2023-04-05T13:01:19.431Z,5.50
2023-04-05T13:03:49.645Z,5.90
2023-04-05T13:06:16.830Z,5.80
2023-04-05T13:08:43.527Z,5.70
2023-04-05T13:11:10.466Z,5.60
2023-04-05T13:13:37.228Z,5.70
2023-04-05T13:16:03.977Z,5.70
2023-04-05T13:18:30.809Z,5.60
2023-04-05T13:20:57.732Z,5.40
2023-04-05T13:23:24.450Z,5.30
2023-04-05T13:25:51.146Z,5.20
2023-04-05T13:28:17.918Z,5.10
2023-04-05T13:30:44.608Z,5.00
2023-04-05T13:33:11.322Z,5.00
2023-04-05T13:35:38.118Z,5.00
2023-04-05T13:38:05.674Z,4.90
2023-04-05T13:40:32.761Z,4.90
2023-04-05T13:43:01.409Z,5.00
2023-04-05T13:45:28.169Z,4.90
2023-04-05T13:47:55.641Z,4.90
2023-04-05T13:50:22.429Z,5.00
2023-04-05T13:52:49.303Z,5.00
2023-04-05T13:55:16.103Z,5.00
2023-04-05T13:57:42.921Z,5.10
2023-04-05T14:00:10.641Z,5.10
2023-04-05T14:02:37.594Z,5.10
2023-04-05T14:05:05.238Z,5.00
2023-04-05T14:07:32.120Z,5.10
2023-04-05T14:09:58.855Z,4.90
2023-04-05T14:12:25.619Z,4.90
2023-04-05T14:14:52.367Z,5.00
2023-04-05T14:17:19.270Z,4.90
2023-04-05T14:19:46.259Z,4.90
2023-04-05T14:22:13.021Z,5.00
2023-04-05T14:24:39.850Z,5.00
2023-04-05T14:27:06.603Z,5.00
2023-04-05T14:29:33.436Z,5.00
2023-04-05T14:32:00.285Z,5.00
2023-04-05T14:34:27.114Z,5.00
2023-04-05T14:36:56.593Z,5.00
2023-04-05T14:39:23.417Z,5.00
2023-04-05T14:41:52.626Z,5.00
2023-04-05T14:44:19.358Z,5.00
2023-04-05T14:46:46.188Z,4.90
2023-04-05T14:49:12.912Z,4.90
2023-04-05T14:51:40.295Z,4.90
2023-04-05T14:54:09.685Z,4.80
2023-04-05T14:56:36.519Z,4.80
2023-04-05T14:59:03.295Z,4.70
2023-04-05T15:01:30.822Z,4.70
2023-04-05T15:03:57.833Z,4.70
2023-04-05T15:06:24.624Z,4.70
2023-04-05T15:08:51.531Z,4.70
2023-04-05T15:11:18.368Z,4.60
2023-04-05T15:13:45.271Z,4.60
2023-04-05T15:16:12.060Z,4.50
2023-04-05T15:18:38.972Z,4.50
2023-04-05T15:21:07.392Z,4.50
2023-04-05T15:23:34.270Z,4.50
2023-04-05T15:26:01.023Z,4.50
2023-04-05T15:28:27.726Z,4.50
2023-04-05T15:30:54.517Z,4.50
2023-04-05T15:33:21.276Z,4.50
2023-04-05T15:35:47.976Z,4.40
2023-04-05T15:38:14.726Z,4.40
2023-04-05T15:40:41.574Z,4.40
2023-04-05T15:43:09.454Z,4.40
2023-04-05T15:45:36.222Z,4.40
2023-04-05T15:48:03.224Z,4.50
2023-04-05T15:50:30.089Z,4.30
2023-04-05T15:52:56.860Z,4.30
2023-04-05T15:55:23.735Z,4.30
2023-04-05T15:57:54.503Z,4.20
2023-04-05T16:00:22.643Z,4.20
2023-04-05T16:02:50.178Z,4.20
2023-04-05T16:05:50.693Z,4.10
2023-04-05T16:08:20.690Z,4.00
2023-04-05T16:11:13.770Z,4.00
2023-04-05T16:14:14.176Z,4.10
2023-04-05T16:17:23.636Z,4.10
2023-04-05T16:22:14.239Z,3.90
2023-04-05T16:24:41.065Z,3.90
2023-04-05T16:27:07.909Z,3.80
2023-04-05T16:29:34.687Z,3.80
2023-04-05T16:32:01.735Z,3.80
2023-04-05T16:34:28.737Z,3.70
2023-04-05T16:36:55.634Z,3.70
2023-04-05T16:39:22.375Z,3.60
2023-04-05T16:41:49.114Z,3.60
2023-04-05T16:44:16.648Z,3.60
2023-04-05T16:46:45.279Z,3.60
2023-04-05T16:49:11.983Z,3.60
2023-04-05T16:51:38.707Z,3.50
2023-04-05T16:54:06.519Z,3.40
2023-04-05T16:56:33.353Z,3.40
2023-04-05T16:59:00.556Z,3.40
2023-04-05T17:01:27.731Z,3.30
2023-04-05T17:03:54.542Z,3.30
2023-04-05T17:06:21.378Z,3.20
2023-04-05T17:08:48.136Z,3.20
2023-04-05T17:11:14.852Z,3.10
2023-04-05T17:13:41.995Z,3.10
2023-04-05T17:16:08.971Z,3.00
2023-04-05T17:18:35.844Z,3.00
2023-04-05T17:21:02.650Z,3.00
2023-04-05T17:23:29.397Z,2.90
2023-04-05T17:25:56.147Z,2.90
2023-04-05T17:28:22.879Z,2.90
2023-04-05T17:30:49.661Z,2.80
2023-04-05T17:33:16.618Z,2.80
2023-04-05T17:35:43.620Z,2.80
2023-04-05T17:38:10.995Z,2.60
2023-04-05T17:40:37.690Z,2.60
2023-04-05T17:43:04.573Z,2.60
2023-04-05T17:45:31.265Z,2.50
2023-04-05T17:47:58.121Z,2.50
2023-04-05T17:50:25.080Z,2.30
2023-04-05T17:52:51.811Z,2.30
2023-04-05T17:55:18.626Z,2.30
2023-04-05T17:57:45.559Z,2.20
2023-04-05T18:00:12.913Z,2.20
2023-04-05T18:02:40.798Z,2.20
2023-04-05T18:05:08.040Z,2.10
2023-04-05T18:07:38.458Z,2.10
2023-04-05T18:10:06.897Z,2.10
2023-04-05T18:12:34.209Z,2.00
2023-04-05T18:15:00.999Z,1.90
2023-04-05T18:17:28.359Z,1.90
2023-04-05T18:19:55.174Z,1.90
2023-04-05T18:22:23.207Z,1.90
2023-04-05T18:24:49.972Z,1.80
2023-04-05T18:27:16.717Z,1.80
2023-04-05T18:29:44.145Z,1.80
2023-04-05T18:32:10.993Z,1.80
2023-04-05T18:34:37.820Z,1.80
2023-04-05T18:37:05.623Z,1.70
2023-04-05T18:39:32.341Z,1.70
2023-04-05T18:41:59.220Z,1.60
2023-04-05T18:44:26.089Z,1.60
2023-04-05T18:46:53.609Z,1.50
2023-04-05T18:49:21.213Z,1.50
2023-04-05T18:51:48.942Z,1.50
2023-04-05T18:54:18.331Z,1.40
2023-04-05T18:56:45.626Z,1.40
2023-04-05T18:59:12.728Z,1.30
2023-04-05T19:01:39.607Z,1.30
2023-04-05T19:04:07.401Z,1.30
2023-04-05T19:06:34.965Z,1.30
2023-04-05T19:09:02.047Z,1.20
2023-04-05T19:11:28.824Z,1.20
2023-04-05T19:13:56.005Z,1.20
2023-04-05T19:16:22.789Z,1.10
2023-04-05T19:18:49.469Z,1.10
2023-04-05T19:21:16.305Z,1.10
2023-04-05T19:23:43.008Z,1.10
2023-04-05T19:26:09.795Z,1.10
2023-04-05T19:28:36.594Z,1.10
2023-04-05T19:31:03.399Z,1.10
2023-04-05T19:33:31.614Z,1.00
2023-04-05T19:35:58.763Z,1.00
2023-04-05T19:38:25.684Z,1.00
2023-04-05T19:40:52.940Z,1.00
2023-04-05T19:43:19.777Z,1.00
2023-04-05T19:45:56.186Z,0.90
2023-04-05T19:48:47.101Z,0.90
2023-04-05T19:51:15.454Z,0.90
2023-04-05T19:53:53.676Z,0.90
2023-04-05T19:56:22.798Z,0.80
2023-04-05T19:59:16.501Z,0.70
2023-04-05T20:01:47.081Z,0.70
2023-04-05T20:04:18.889Z,0.60
2023-04-05T20:06:52.759Z,0.60
2023-04-05T20:09:21.188Z,0.60
2023-04-05T20:11:55.987Z,0.60
2023-04-05T20:14:30.418Z,0.70
2023-04-05T20:16:58.621Z,0.70
2023-04-05T20:19:30.677Z,0.60
2023-04-05T20:22:01.513Z,0.70
2023-04-05T20:24:29.286Z,0.70
2023-04-05T20:26:59.413Z,0.60
2023-04-05T20:29:28.868Z,0.70
2023-04-05T20:31:56.534Z,0.60
2023-04-05T20:34:32.512Z,0.60
2023-04-05T20:37:01.811Z,0.60
2023-04-05T20:39:29.641Z,0.50
2023-04-05T20:41:57.029Z,0.40
2023-04-05T20:44:24.477Z,0.40
2023-04-05T20:46:54.188Z,0.50
2023-04-05T20:49:22.355Z,0.40
2023-04-05T20:51:50.716Z,0.40
2023-04-05T20:54:18.974Z,0.50
2023-04-05T20:56:46.052Z,0.50
2023-04-05T20:59:14.590Z,0.40
2023-04-05T21:01:42.823Z,0.50
2023-04-05T21:04:10.148Z,0.40
2023-04-05T21:06:37.582Z,0.40
2023-04-05T21:09:04.981Z,0.40
2023-04-05T21:11:31.904Z,0.30
2023-04-05T21:13:58.684Z,0.30
2023-04-05T21:16:25.803Z,0.30
2023-04-05T21:18:52.554Z,0.20
2023-04-05T21:21:19.340Z,0.20
2023-04-05T21:23:47.566Z,0.20
2023-04-05T21:26:14.444Z,0.20
2023-04-05T21:28:41.156Z,0.20
2023-04-05T21:31:08.004Z,0.20
2023-04-05T21:33:34.910Z,0.20
2023-04-05T21:36:01.784Z,0.20
2023-04-05T21:38:28.918Z,0.20
2023-04-05T21:41:01.273Z,0.10
2023-04-05T21:43:28.127Z,0.10
2023-04-05T21:45:55.160Z,0.00
2023-04-05T21:48:24.249Z,-0.10
2023-04-05T21:50:51.133Z,0.10
2023-04-05T21:53:18.127Z,0.00
2023-04-05T21:55:45.031Z,0.10
2023-04-05T21:58:11.792Z,-0.10
2023-04-05T22:00:38.678Z,-0.10
2023-04-05T22:03:05.555Z,-0.10
2023-04-05T22:05:37.846Z,0.00
2023-04-05T22:08:06.679Z,-0.10
2023-04-05T22:10:34.253Z,-0.10
2023-04-05T22:13:01.096Z,-0.10
2023-04-05T22:15:27.953Z,-0.10
2023-04-05T22:17:55.993Z,-0.10
2023-04-05T22:20:22.747Z,0.00
2023-04-05T22:22:49.566Z,-0.10
2023-04-05T22:25:16.442Z,-0.20
2023-04-05T22:27:44.321Z,-0.20
2023-04-05T22:30:13.935Z,0.00
2023-04-05T22:32:40.830Z,-0.20
2023-04-05T22:35:08.108Z,-0.20
2023-04-05T22:37:38.244Z,-0.20
2023-04-05T22:40:08.371Z,-0.10
2023-04-05T22:42:35.377Z,-0.10
2023-04-05T22:45:03.578Z,-0.10
2023-04-05T22:47:30.559Z,-0.10
2023-04-05T22:49:57.436Z,0.00
2023-04-05T22:52:24.281Z,0.00
2023-04-05T22:54:51.140Z,0.00
2023-04-05T22:57:20.467Z,0.00
2023-04-05T22:59:47.698Z,0.10
2023-04-05T23:02:14.835Z,0.10
2023-04-05T23:04:41.631Z,-0.20
2023-04-05T23:07:08.372Z,0.10
2023-04-05T23:09:35.671Z,0.10
2023-04-05T23:12:04.430Z,0.10
2023-04-05T23:14:31.475Z,0.10
2023-04-05T23:16:58.247Z,0.10
2023-04-05T23:19:25.063Z,0.00
2023-04-05T23:21:52.139Z,0.10
2023-04-05T23:24:21.142Z,-0.10
2023-04-05T23:26:47.973Z,-0.10
2023-04-05T23:29:15.025Z,-0.20
2023-04-05T23:31:41.752Z,-0.20
2023-04-05T23:34:09.673Z,-0.30
2023-04-05T23:36:36.479Z,-0.20
2023-04-05T23:39:03.572Z,-0.20
2023-04-05T23:41:30.365Z,-0.30
2023-04-05T23:43:57.185Z,-0.30
2023-04-05T23:46:24.488Z,-0.30
2023-04-05T23:48:51.236Z,-0.30
2023-04-05T23:51:18.165Z,-0.30
2023-04-05T23:53:44.946Z,-0.30
2023-04-05T23:56:11.714Z,-0.30
2023-04-05T23:58:38.628Z,-0.30
